createdAt,value
2024-02-08T00:04:05.194Z,3.30
2024-02-08T00:09:12.983Z,3.27
2024-02-08T00:14:18.269Z,3.39
2024-02-08T00:19:23.447Z,3.41
2024-02-08T00:24:32.224Z,3.35
2024-02-08T00:29:37.707Z,3.25
2024-02-08T00:34:46.491Z,2.90
2024-02-08T00:39:54.582Z,2.87
2024-02-08T00:45:00.036Z,2.95
2024-02-08T00:50:08.347Z,2.56
2024-02-08T00:55:17.496Z,2.92
2024-02-08T01:00:24.530Z,2.51
2024-02-08T01:05:29.984Z,2.61
2024-02-08T01:10:38.014Z,2.78
2024-02-08T01:15:43.530Z,2.85
2024-02-08T01:20:48.710Z,2.81
2024-02-08T01:25:56.866Z,2.77
2024-02-08T01:31:02.794Z,2.63
2024-02-08T01:36:08.763Z,2.71
2024-02-08T01:41:17.823Z,2.54
2024-02-08T01:46:25.488Z,2.63
2024-02-08T01:51:31.540Z,2.72
2024-02-08T01:56:43.387Z,2.66
2024-02-08T02:01:52.948Z,2.72
2024-02-08T02:07:01.579Z,2.59
2024-02-08T02:12:15.913Z,2.38
2024-02-08T02:17:27.862Z,2.44
2024-02-08T02:22:36.350Z,2.13
2024-02-08T02:27:44.354Z,1.97
2024-02-08T02:32:51.429Z,1.92
2024-02-08T02:38:04.173Z,1.86
2024-02-08T02:43:11.452Z,1.90
2024-02-08T02:48:17.428Z,2.27
2024-02-08T02:53:25.904Z,2.18
2024-02-08T02:58:33.130Z,1.70
2024-02-08T03:03:42.478Z,1.76
2024-02-08T03:08:51.589Z,1.95
2024-02-08T03:13:57.210Z,1.66
2024-02-08T03:19:03.171Z,1.71
2024-02-08T03:24:13.445Z,1.62
2024-02-08T03:29:19.672Z,1.58
2024-02-08T03:34:36.103Z,1.58
2024-02-08T03:39:48.454Z,1.48
2024-02-08T03:44:55.809Z,1.60
2024-02-08T03:50:05.372Z,1.60
2024-02-08T03:55:14.424Z,1.72
2024-02-08T04:00:29.718Z,1.67
2024-02-08T04:05:44.187Z,1.66
2024-02-08T04:11:04.422Z,1.72
2024-02-08T04:16:22.690Z,1.78
2024-02-08T04:21:42.936Z,1.77
2024-02-08T04:27:03.654Z,1.74
2024-02-08T04:32:22.257Z,1.86
2024-02-08T04:37:39.899Z,1.97
2024-02-08T04:43:00.224Z,1.94
2024-02-08T04:48:17.765Z,2.11
2024-02-08T04:53:35.359Z,1.96
2024-02-08T04:59:07.046Z,1.87
2024-02-08T05:04:20.453Z,1.94
2024-02-08T05:09:26.190Z,1.92
2024-02-08T05:14:39.396Z,1.90
2024-02-08T05:19:47.840Z,1.92
2024-02-08T05:24:56.777Z,1.90
2024-02-08T05:30:04.790Z,2.00
2024-02-08T05:35:15.958Z,2.00
2024-02-08T05:40:23.876Z,1.99
2024-02-08T05:45:34.738Z,2.05
2024-02-08T05:50:40.009Z,1.99
2024-02-08T05:55:49.608Z,1.93
2024-02-08T06:01:07.248Z,1.86
2024-02-08T06:06:30.718Z,2.19
2024-02-08T06:11:38.614Z,2.12
2024-02-08T06:16:52.679Z,2.23
2024-02-08T06:22:09.631Z,2.42
2024-02-08T06:27:18.590Z,2.32
2024-02-08T06:32:45.542Z,2.23
2024-02-08T06:38:01.825Z,2.45
2024-02-08T06:43:24.287Z,2.27
2024-02-08T06:48:44.632Z,2.31
2024-02-08T06:54:05.489Z,2.33
2024-02-08T06:59:23.071Z,2.65
2024-02-08T07:04:50.400Z,2.71
2024-02-08T07:10:09.832Z,2.74
2024-02-08T07:15:30.660Z,2.42
2024-02-08T07:20:51.113Z,2.29
2024-02-08T07:26:09.082Z,2.48
2024-02-08T07:31:26.629Z,2.38
2024-02-08T07:36:46.753Z,2.41
2024-02-08T07:41:58.706Z,2.55
2024-02-08T07:47:05.384Z,2.84
2024-02-08T07:52:21.436Z,3.04
2024-02-08T07:57:33.044Z,2.99
2024-02-08T08:02:41.294Z,3.17
2024-02-08T08:08:01.319Z,3.21
2024-02-08T08:13:08.046Z,3.14
2024-02-08T08:18:25.730Z,3.17
2024-02-08T08:23:33.509Z,3.35
2024-02-08T08:28:54.451Z,3.15
2024-02-08T08:34:27.145Z,3.06
2024-02-08T08:39:53.331Z,2.81
2024-02-08T08:45:06.405Z,3.06
2024-02-08T08:50:23.542Z,3.27
2024-02-08T08:55:32.812Z,3.60
2024-02-08T09:00:40.059Z,3.72
2024-02-08T09:05:48.111Z,3.63
2024-02-08T09:10:58.209Z,3.86
2024-02-08T09:16:26.711Z,3.75
2024-02-08T09:21:40.517Z,3.90
2024-02-08T09:26:58.097Z,3.95
2024-02-08T09:32:17.592Z,4.05
2024-02-08T09:37:23.276Z,4.14
2024-02-08T09:42:39.569Z,4.28
2024-02-08T09:47:54.070Z,4.66
2024-02-08T09:53:08.962Z,4.22
2024-02-08T09:58:36.339Z,4.06
2024-02-08T10:03:46.417Z,4.04
2024-02-08T10:09:09.930Z,4.24
2024-02-08T10:14:26.825Z,4.38
2024-02-08T10:19:45.558Z,4.74
2024-02-08T10:25:03.743Z,4.44
2024-02-08T10:30:21.245Z,4.68
2024-02-08T10:35:30.935Z,4.56
2024-02-08T10:40:36.817Z,4.64
2024-02-08T10:45:45.841Z,5.03
2024-02-08T10:50:54.761Z,4.62
2024-02-08T10:56:01.217Z,4.98
2024-02-08T11:01:34.636Z,5.43
2024-02-08T11:06:56.196Z,5.26
2024-02-08T11:12:10.188Z,5.30
2024-02-08T11:17:22.265Z,4.98
2024-02-08T11:22:41.988Z,5.12
2024-02-08T11:27:50.801Z,5.83
2024-02-08T11:33:07.265Z,5.80
2024-02-08T11:38:22.597Z,5.98
2024-02-08T11:43:30.725Z,5.96
2024-02-08T11:48:43.243Z,5.58
2024-02-08T11:53:52.857Z,5.03
2024-02-08T11:59:21.741Z,5.73
2024-02-08T12:04:40.965Z,5.68
2024-02-08T12:09:50.899Z,5.78
2024-02-08T12:15:01.456Z,5.57
2024-02-08T12:20:11.839Z,5.17
2024-02-08T12:25:20.537Z,5.36
2024-02-08T12:30:29.712Z,5.27
2024-02-08T12:35:42.623Z,5.68
2024-02-08T12:40:53.491Z,5.12
2024-02-08T12:45:58.976Z,4.92
2024-02-08T12:51:15.211Z,4.73
2024-02-08T12:56:23.724Z,4.78
2024-02-08T13:01:38.356Z,4.91
2024-02-08T13:06:47.555Z,4.89
2024-02-08T13:11:52.786Z,4.74
2024-02-08T13:17:00.980Z,4.85
2024-02-08T13:22:10.895Z,4.56
2024-02-08T13:27:27.398Z,4.41
2024-02-08T13:32:38.613Z,4.66
2024-02-08T13:37:55.961Z,4.26
2024-02-08T13:48:18.084Z,4.65
2024-02-08T13:53:29.786Z,4.49
2024-02-08T13:58:45.790Z,4.54
2024-02-08T14:03:56.315Z,4.59
2024-02-08T14:09:21.093Z,4.73
2024-02-08T14:14:32.321Z,4.45
2024-02-08T14:19:38.662Z,4.71
2024-02-08T14:24:58.341Z,4.48
2024-02-08T14:30:06.890Z,4.29
2024-02-08T14:35:18.144Z,4.45
2024-02-08T14:40:30.413Z,4.30
2024-02-08T14:45:39.630Z,4.19
2024-02-08T14:50:54.598Z,4.43
2024-02-08T14:56:02.828Z,4.40
2024-02-08T15:01:13.671Z,4.35
2024-02-08T15:06:38.530Z,4.15
2024-02-08T15:11:59.171Z,4.02
2024-02-08T15:17:09.293Z,4.16
2024-02-08T15:22:42.452Z,3.84
2024-02-08T15:27:58.638Z,3.97
2024-02-08T15:33:22.366Z,4.04
2024-02-08T15:39:02.160Z,3.89
2024-02-08T15:44:17.114Z,3.93
2024-02-08T15:49:30.546Z,3.60
2024-02-08T15:54:39.791Z,3.78
2024-02-08T15:59:48.310Z,3.55
2024-02-08T16:04:56.829Z,3.39
2024-02-08T16:10:21.754Z,3.37
2024-02-08T16:15:46.205Z,3.19
2024-02-08T16:20:55.610Z,3.36
2024-02-08T16:26:12.672Z,3.23
2024-02-08T16:31:33.245Z,3.23
2024-02-08T16:36:46.556Z,3.13
2024-02-08T16:41:58.057Z,3.10
2024-02-08T16:53:05.496Z,3.03
2024-02-08T17:54:33.655Z,3.29
2024-02-08T17:59:39.459Z,3.40
2024-02-08T18:04:45.144Z,3.48
2024-02-08T18:10:12.637Z,3.15
2024-02-08T18:15:26.080Z,3.05
2024-02-08T18:20:35.314Z,3.11
2024-02-08T18:25:47.021Z,2.95
2024-02-08T18:30:57.455Z,2.96
2024-02-08T18:36:06.430Z,3.05
2024-02-08T18:41:14.196Z,2.95
2024-02-08T18:46:26.264Z,2.87
2024-02-08T18:51:32.070Z,2.81
2024-02-08T18:56:39.951Z,2.69
2024-02-08T19:01:54.085Z,2.93
2024-02-08T19:07:06.798Z,2.86
2024-02-08T19:12:19.506Z,2.92
2024-02-08T19:17:33.186Z,3.09
2024-02-08T19:22:49.931Z,3.14
2024-02-08T19:28:00.655Z,3.13
2024-02-08T19:33:11.770Z,3.03
2024-02-08T19:38:19.639Z,3.07
2024-02-08T19:43:36.896Z,3.32
2024-02-08T19:48:43.709Z,3.19
2024-02-08T19:53:51.645Z,3.14
2024-02-08T19:59:04.000Z,3.12
2024-02-08T20:04:15.532Z,3.46
2024-02-08T20:09:23.269Z,3.11
2024-02-08T20:14:32.681Z,3.46
2024-02-08T20:19:40.137Z,2.95
2024-02-08T20:24:47.137Z,3.21
2024-02-08T20:29:58.941Z,3.19
2024-02-08T20:35:05.608Z,2.87
2024-02-08T20:40:12.895Z,2.96
2024-02-08T20:45:23.513Z,3.06
2024-02-08T20:50:28.672Z,3.08
2024-02-08T20:55:36.756Z,3.02
2024-02-08T21:00:48.062Z,3.23
2024-02-08T21:05:56.153Z,3.12
2024-02-08T21:11:02.825Z,3.00
2024-02-08T21:16:14.435Z,2.97
2024-02-08T21:21:22.083Z,3.04
2024-02-08T21:26:27.683Z,2.90
2024-02-08T21:31:35.672Z,2.99
2024-02-08T21:36:44.897Z,2.96
2024-02-08T21:41:50.659Z,3.02
2024-02-08T21:46:58.600Z,3.08
2024-02-08T21:52:08.985Z,3.14
2024-02-08T21:57:16.406Z,3.16
2024-02-08T22:02:24.272Z,3.12
2024-02-08T22:07:29.945Z,3.21
2024-02-08T22:12:35.316Z,3.34
2024-02-08T22:17:43.107Z,3.10
2024-02-08T22:22:49.197Z,3.59
2024-02-08T22:27:54.394Z,3.47
2024-02-08T22:33:02.893Z,3.55
2024-02-08T22:38:09.142Z,3.51
2024-02-08T22:43:19.049Z,3.68
2024-02-08T22:48:26.925Z,3.57
2024-02-08T22:53:32.240Z,3.66
2024-02-08T22:58:38.043Z,3.61
2024-02-08T23:03:46.307Z,3.71
2024-02-08T23:08:51.560Z,3.54
2024-02-08T23:13:56.753Z,3.67
2024-02-08T23:19:06.370Z,3.60
2024-02-08T23:24:11.751Z,3.81
2024-02-08T23:29:17.084Z,3.93
2024-02-08T23:34:28.389Z,3.65
2024-02-08T23:39:34.330Z,3.77
2024-02-08T23:44:40.012Z,3.84
2024-02-08T23:49:47.991Z,4.03
2024-02-08T23:54:53.477Z,3.96
2024-02-08T23:59:58.787Z,4.11
